Time;durP1;ratioP1;P1;durP2;ratioP2;P2;SDS_P1;SDS_P2;PMS_P1;PMS_P2;Temp;Humidity;BMP_temperature;BMP_pressure;BME280_temperature;BME280_humidity;BME280_pressure;Samples;Min_cycle;Max_cycle;Signal;HPM_P1;HPM_P2
2023/01/19 00:01:22;;;;;;;26.83;18.42;;;;;;;0.16;100.00;100060.63;5084716;28;20028;-85
2023/01/19 00:03:50;;;;;;;27.20;17.88;;;;;;;0.07;100.00;100029.63;5085981;28;20487;-89
2023/01/19 00:06:16;;;;;;;26.52;16.85;;;;;;;-0.10;100.00;100002.25;5086212;28;20036;-91
2023/01/19 00:08:44;;;;;;;28.00;17.95;;;;;;;-0.17;100.00;99998.28;5088755;28;20031;-91
2023/01/19 00:11:25;;;;;;;27.05;18.00;;;;;;;-0.24;100.00;100000.19;5086515;28;20047;-84
2023/01/19 00:13:57;;;;;;;25.23;18.42;;;;;;;-0.67;100.00;99933.06;5108669;28;20031;-89
2023/01/19 00:16:23;;;;;;;27.33;17.55;;;;;;;-0.06;100.00;100039.38;5108998;28;20027;-89
2023/01/19 00:18:57;;;;;;;28.85;18.45;;;;;;;-0.05;100.00;100051.16;5107843;28;20016;-89
2023/01/19 00:21:25;;;;;;;26.85;18.75;;;;;;;-0.48;100.00;99976.44;5109081;28;20015;-90
2023/01/19 00:23:51;;;;;;;27.63;18.58;;;;;;;-0.38;100.00;99995.56;5109842;28;20028;-89
2023/01/19 00:26:17;;;;;;;26.83;17.45;;;;;;;-0.74;100.00;99934.13;5107836;28;20499;-87
2023/01/19 00:28:43;;;;;;;27.15;18.55;;;;;;;-0.06;100.00;100047.81;5108268;28;20028;-88
2023/01/19 00:31:10;;;;;;;27.15;18.40;;;;;;;-0.82;100.00;99925.91;5087287;28;20024;-85
2023/01/19 00:33:47;;;;;;;30.52;18.83;;;;;;;-0.92;100.00;99922.84;5106640;28;20020;-86
2023/01/19 00:36:15;;;;;;;30.33;18.40;;;;;;;-0.39;100.00;100014.19;5092342;28;20054;-90
2023/01/19 00:38:40;;;;;;;26.80;17.88;;;;;;;-0.09;100.00;100065.69;5090859;28;20051;-84
2023/01/19 00:41:06;;;;;;;28.38;18.88;;;;;;;-0.08;100.00;100071.56;5108342;28;20027;-83
2023/01/19 00:43:31;;;;;;;31.13;18.48;;;;;;;0.36;100.00;100138.69;5104697;28;20041;-88
2023/01/19 00:45:56;;;;;;;26.98;18.33;;;;;;;0.28;100.00;100126.25;5105627;28;20028;-87
2023/01/19 00:48:27;;;;;;;29.42;19.13;;;;;;;0.16;100.00;100113.13;5060578;28;20033;-89
2023/01/19 00:50:52;;;;;;;27.85;18.38;;;;;;;-0.26;100.00;100054.38;5058771;28;20044;-91
2023/01/19 00:53:20;;;;;;;28.08;18.85;;;;;;;0.08;100.00;100118.44;5062290;28;20036;-90
2023/01/19 00:55:57;;;;;;;28.85;19.30;;;;;;;-1.17;100.00;99927.00;5059862;28;20045;-85
2023/01/19 00:58:25;;;;;;;30.52;19.15;;;;;;;-1.23;100.00;99930.53;5062394;28;20045;-87
2023/01/19 01:00:52;;;;;;;33.67;20.85;;;;;;;-0.32;100.00;100079.06;5061804;28;20095;-92
2023/01/19 01:03:17;;;;;;;29.95;20.65;;;;;;;-1.17;100.00;99927.81;5063642;28;20495;-88
2023/01/19 01:05:54;;;;;;;32.13;20.75;;;;;;;-0.95;100.00;99970.25;5062918;28;20037;-92
2023/01/19 01:14:02;;;;;;;31.58;18.42;;;;;;;-1.00;100.00;99945.03;5135129;22;20054;-89
2023/01/19 01:16:28;;;;;;;31.10;19.50;;;;;;;-0.12;100.00;100082.69;5144130;27;20031;-89
2023/01/19 01:25:38;;;;;;;30.88;18.80;;;;;;;-0.89;100.00;99930.34;5183691;22;20084;-90
2023/01/19 01:28:07;;;;;;;27.52;16.75;;;;;;;0.00;100.00;100069.63;5144409;27;20019;-91
2023/01/19 01:30:33;;;;;;;27.80;17.63;;;;;;;0.55;100.00;100136.41;5122780;27;20031;-86
2023/01/19 01:33:05;;;;;;;25.23;16.52;;;;;;;0.06;100.00;100060.97;5140656;27;20030;-87
2023/01/19 01:35:32;;;;;;;26.70;15.93;;;;;;;-0.12;100.00;100029.41;5135732;28;20047;-92
2023/01/19 01:38:01;;;;;;;29.55;16.83;;;;;;;0.57;100.00;100132.91;5136183;28;20079;-90
2023/01/19 01:40:40;;;;;;;27.15;16.40;;;;;;;0.45;100.00;100129.97;5138229;28;20116;-91
2023/01/19 01:43:12;;;;;;;29.75;17.30;;;;;;;0.57;100.00;100139.72;5136853;28;20050;-91
2023/01/19 01:45:41;;;;;;;25.50;16.83;;;;;;;0.42;100.00;100123.28;5135013;27;20051;-89
2023/01/19 01:48:15;;;;;;;25.73;16.15;;;;;;;0.28;100.00;100105.09;5137655;27;20027;-88
2023/01/19 01:53:38;;;;;;;29.90;16.20;;;;;;;0.02;100.00;100090.72;5137843;27;20065;-87
2023/01/19 01:56:08;;;;;;;24.48;14.90;;;;;;;0.30;100.00;100153.31;5137703;27;20065;-85
2023/01/19 01:58:35;;;;;;;23.50;14.85;;;;;;;0.17;100.00;100142.69;5137650;27;20096;-87
2023/01/19 02:03:44;;;;;;;27.92;15.80;;;;;;;0.21;100.00;100152.72;5137733;27;20069;-88
2023/01/19 02:06:11;;;;;;;27.13;16.45;;;;;;;0.18;100.00;100152.81;5137388;27;20466;-89
2023/01/19 02:14:11;;;;;;;27.02;17.23;;;;;;;0.08;100.00;100158.22;5137377;27;20394;-88
2023/01/19 02:16:37;;;;;;;28.00;17.83;;;;;;;-0.24;100.00;100113.50;5137750;27;20027;-84
2023/01/19 02:19:04;;;;;;;26.80;17.23;;;;;;;-0.53;100.00;100081.41;5137455;27;20080;-85
2023/01/19 02:21:48;;;;;;;28.05;17.80;;;;;;;-0.07;100.00;100162.06;5137013;27;20031;-87
2023/01/19 02:24:14;;;;;;;28.25;17.88;;;;;;;-0.19;100.00;100150.56;5137197;27;20031;-84
2023/01/19 02:26:43;;;;;;;27.40;17.42;;;;;;;-0.24;100.00;100154.94;5136921;27;20528;-87
2023/01/19 02:29:15;;;;;;;27.30;16.83;;;;;;;-0.53;100.00;100114.38;5137222;27;20027;-83
2023/01/19 02:31:41;;;;;;;28.92;17.67;;;;;;;-0.78;100.00;100088.91;5137109;27;20023;-87
2023/01/19 02:34:09;;;;;;;27.63;18.20;;;;;;;-0.66;100.00;100126.56;5137378;27;20046;-87
2023/01/19 02:36:49;;;;;;;25.73;17.70;;;;;;;-0.52;100.00;100167.56;5136663;27;20027;-83
2023/01/19 02:39:18;;;;;;;28.23;19.08;;;;;;;-0.60;100.00;100177.94;5137013;27;20031;-83
2023/01/19 02:41:52;;;;;;;32.70;18.98;;;;;;;-0.60;100.00;100179.63;5136815;27;20035;-84
2023/01/19 02:44:21;;;;;;;30.20;19.42;;;;;;;-0.77;100.00;100143.78;5136809;27;20030;-83
2023/01/19 02:46:47;;;;;;;33.47;19.70;;;;;;;-0.68;100.00;100172.25;5136664;27;20019;-84
2023/01/19 02:49:13;;;;;;;33.17;21.50;;;;;;;-0.65;100.00;100171.34;5136597;27;20026;-82
2023/01/19 02:51:41;;;;;;;31.13;20.85;;;;;;;-1.06;100.00;100120.06;5136436;27;20052;-85
2023/01/19 02:54:20;;;;;;;34.47;22.80;;;;;;;-0.69;100.00;100195.09;5136412;27;20019;-85
2023/01/19 02:56:48;;;;;;;29.38;21.75;;;;;;;-0.72;100.00;100187.56;5136161;27;20027;-83
2023/01/19 02:59:55;;;;;;;34.80;23.38;;;;;;;-0.70;100.00;100190.91;5136420;27;20062;-87
2023/01/19 03:02:42;;;;;;;34.97;22.63;;;;;;;-0.73;100.00;100193.53;5053050;28;20041;-83
2023/01/19 03:05:33;;;;;;;32.53;22.02;;;;;;;-0.72;100.00;100192.66;5052942;28;20040;-83
2023/01/19 03:08:13;;;;;;;33.20;22.65;;;;;;;-0.66;100.00;100203.47;5036365;28;20053;-82
2023/01/19 03:10:46;;;;;;;33.45;22.35;;;;;;;-0.81;100.00;100180.22;5053046;28;20128;-83
2023/01/19 03:13:30;;;;;;;32.45;22.13;;;;;;;-0.61;100.00;100201.63;5052812;28;20047;-84
2023/01/19 03:15:57;;;;;;;32.70;22.80;;;;;;;-0.69;100.00;100190.88;5052882;28;20029;-82
2023/01/19 03:18:28;;;;;;;30.55;21.48;;;;;;;-0.63;100.00;100208.44;5035928;28;20077;-82
2023/01/19 03:20:58;;;;;;;33.10;20.98;;;;;;;-0.67;100.00;100198.44;5052583;28;20044;-80
2023/01/19 03:23:29;;;;;;;29.42;19.63;;;;;;;-0.64;100.00;100218.63;5052527;28;20626;-81
2023/01/19 03:25:57;;;;;;;31.23;19.73;;;;;;;-0.56;100.00;100220.97;5052641;28;20056;-83
2023/01/19 03:28:26;;;;;;;26.25;18.60;;;;;;;-0.56;100.00;100229.41;5036096;28;20481;-83
2023/01/19 03:30:59;;;;;;;26.83;18.95;;;;;;;-0.58;100.00;100226.09;5052480;28;20025;-80
2023/01/19 03:33:29;;;;;;;25.60;17.83;;;;;;;-0.82;100.00;100196.31;5052437;28;20109;-81
2023/01/19 03:36:02;;;;;;;24.08;17.17;;;;;;;-0.68;100.00;100229.75;5052178;28;20033;-83
2023/01/19 03:38:33;;;;;;;20.30;15.95;;;;;;;-1.04;100.00;100179.13;5059758;27;20037;-81
2023/01/19 03:41:01;;;;;;;23.08;17.38;;;;;;;-0.69;100.00;100244.13;5117382;27;20034;-81
2023/01/19 03:43:28;;;;;;;24.92;17.65;;;;;;;-0.69;100.00;100245.81;5135705;27;20084;-81
2023/01/19 03:45:58;;;;;;;24.85;16.25;;;;;;;-1.08;100.00;100187.69;5135371;27;20072;-81
2023/01/19 03:49:40;;;;;;;23.77;17.23;;;;;;;-0.69;100.00;100256.81;5089459;22;20416;-82
2023/01/19 03:52:09;;;;;;;;;;;;;;;-0.68;100.00;100255.09;5051632;28;20062;-82
2023/01/19 03:54:35;;;;;;;21.70;15.48;;;;;;;-1.10;100.00;100201.25;5054171;28;19970;-82
2023/01/19 03:57:06;;;;;;;24.17;16.77;;;;;;;-1.05;100.00;100202.81;5054474;28;20020;-82
2023/01/19 04:02:59;;;;;;;22.20;16.00;;;;;;;-0.64;100.00;100280.31;5053878;28;20261;-81
2023/01/19 04:05:50;;;;;;;19.80;15.48;;;;;;;-0.64;100.00;100282.03;5053985;28;20435;-82
2023/01/19 04:15:16;;;;;;;14.88;11.73;;;;;;;-0.96;100.00;100252.44;5013371;28;20041;-81
2023/01/19 04:17:42;;;;;;;13.68;10.73;;;;;;;-0.88;100.00;100260.69;5012317;28;20481;-89
2023/01/19 04:20:08;;;;;;;15.25;10.77;;;;;;;-1.19;100.00;100213.28;5012965;28;20128;-92
2023/01/19 04:22:38;;;;;;;13.88;10.20;;;;;;;-1.38;100.00;100175.75;5012704;28;20081;-90
2023/01/19 04:25:03;;;;;;;11.90;9.02;;;;;;;-1.29;100.00;100193.28;5014038;28;20030;-92
2023/01/19 04:27:28;;;;;;;11.93;8.98;;;;;;;-1.77;100.00;100118.50;5014253;28;20038;-91
2023/01/19 04:29:54;;;;;;;12.23;8.32;;;;;;;-1.61;100.00;100140.88;5012606;28;20044;-92
2023/01/19 04:32:19;;;;;;;10.48;7.50;;;;;;;-1.59;100.00;100156.88;5013406;28;20117;-92
2023/01/19 04:34:47;;;;;;;9.10;6.30;;;;;;;-1.57;100.00;100167.81;5013332;28;20042;-91
2023/01/19 04:37:13;;;;;;;8.77;5.93;;;;;;;-1.78;100.00;100142.09;5012535;28;20041;-91
2023/01/19 04:39:38;;;;;;;8.40;5.57;;;;;;;-1.71;100.00;100159.69;5012374;28;20535;-92
2023/01/19 04:42:05;;;;;;;7.28;4.68;;;;;;;-1.77;100.00;100155.59;5012415;28;20543;-89
2023/01/19 04:44:30;;;;;;;8.35;5.10;;;;;;;-1.88;100.00;100137.28;5011704;28;20034;-90
2023/01/19 04:46:55;;;;;;;7.72;5.03;;;;;;;-1.73;100.00;100149.59;5012831;28;20145;-88
2023/01/19 04:49:21;;;;;;;7.88;5.22;;;;;;;-1.76;100.00;100129.44;5053262;28;20040;-87
2023/01/19 04:52:19;;;;;;;7.68;5.05;;;;;;;-0.93;100.00;100240.50;5068560;28;20060;-90
2023/01/19 04:54:53;;;;;;;7.18;3.97;;;;;;;-1.84;100.00;100058.75;4972165;28;20049;-88
2023/01/19 04:57:19;;;;;;;6.45;3.78;;;;;;;-1.85;100.00;100061.34;4972083;28;20053;-86
2023/01/19 04:59:47;;;;;;;5.97;3.28;;;;;;;-1.88;100.00;100061.38;4972187;28;20039;-87
2023/01/19 05:02:29;;;;;;;5.80;3.17;;;;;;;-0.79;100.00;100249.44;4972080;28;20133;-87
2023/01/19 05:04:54;;;;;;;;;;;;;;;-0.79;100.00;100242.66;4972591;28;20388;-87
2023/01/19 05:07:22;;;;;;;6.07;3.78;;;;;;;-2.16;100.00;100010.66;4972052;28;20001;-86
2023/01/19 05:09:59;;;;;;;8.75;4.38;;;;;;;-1.47;100.00;100119.44;4971850;28;20382;-86
2023/01/19 05:12:24;;;;;;;7.82;4.97;;;;;;;-1.94;100.00;100026.13;4972179;28;20041;-85
2023/01/19 05:14:52;;;;;;;9.52;5.57;;;;;;;-2.12;100.00;100017.28;4971918;28;20015;-85
2023/01/19 05:20:47;;;;;;;11.75;7.03;;;;;;;-2.16;100.00;100005.59;4971616;28;20081;-86
2023/01/19 05:23:30;;;;;;;11.50;7.18;;;;;;;-1.28;100.00;100149.34;4971507;28;20038;-88
2023/01/19 05:29:20;;;;;;;13.18;7.57;;;;;;;-0.84;100.00;100249.56;4972206;28;20482;-86
2023/01/19 05:31:58;;;;;;;13.27;8.55;;;;;;;-1.52;100.00;100140.66;5027679;28;20441;-86
2023/01/19 05:34:24;;;;;;;11.07;7.65;;;;;;;-1.09;100.00;100220.63;5073603;28;20020;-87
2023/01/19 05:36:50;;;;;;;13.68;8.20;;;;;;;-1.69;100.00;100123.34;5072769;28;20391;-90
2023/01/19 05:39:15;;;;;;;11.68;7.50;;;;;;;-0.81;100.00;100267.22;5072265;28;20029;-87
2023/01/19 05:41:41;;;;;;;14.27;8.90;;;;;;;-0.82;100.00;100267.28;5072758;28;20037;-87
2023/01/19 05:44:28;;;;;;;14.85;8.60;;;;;;;-0.79;100.00;100273.09;5072428;28;20092;-86
2023/01/19 05:46:54;;;;;;;14.30;9.30;;;;;;;-1.99;100.00;100086.13;5071864;28;20041;-87
2023/01/19 05:49:19;;;;;;;14.90;10.07;;;;;;;-1.40;100.00;100185.09;5072584;28;20028;-86
2023/01/19 05:51:44;;;;;;;15.88;9.48;;;;;;;-1.22;100.00;100215.06;5072209;28;20124;-88
2023/01/19 05:54:19;;;;;;;16.50;9.95;;;;;;;-1.63;100.00;100153.59;5072311;28;20105;-88
2023/01/19 05:56:53;;;;;;;16.55;9.65;;;;;;;-1.79;100.00;100129.50;5072300;28;20078;-88
2023/01/19 05:59:34;;;;;;;18.88;10.80;;;;;;;-0.82;100.00;100287.56;5072381;28;20072;-89
2023/01/19 06:01:59;;;;;;;17.95;11.23;;;;;;;-1.56;100.00;100179.59;5072798;28;20024;-87
2023/01/19 06:04:45;;;;;;;17.65;11.32;;;;;;;-0.77;100.00;100293.34;5072820;28;20345;-90
2023/01/19 06:07:23;;;;;;;17.30;11.00;;;;;;;-1.25;100.00;100213.44;5071977;28;20186;-85
2023/01/19 06:09:48;;;;;;;19.58;11.60;;;;;;;-1.68;100.00;100149.47;5072231;28;20361;-81
2023/01/19 06:12:13;;;;;;;18.90;11.52;;;;;;;-0.95;100.00;100274.38;5072230;28;20031;-84
2023/01/19 06:14:39;;;;;;;22.10;11.27;;;;;;;-0.77;100.00;100298.44;5072731;28;20031;-91
2023/01/19 06:17:07;;;;;;;19.38;11.93;;;;;;;-0.74;100.00;100301.72;5072992;28;20478;-90
2023/01/19 06:19:33;;;;;;;22.58;11.75;;;;;;;-0.73;100.00;100302.53;5073233;28;20020;-88
2023/01/19 06:21:59;;;;;;;20.52;12.10;;;;;;;-0.94;100.00;100279.38;5055450;28;20032;-83
2023/01/19 06:24:24;;;;;;;20.90;12.57;;;;;;;-0.73;100.00;100315.22;5073544;28;20391;-81
2023/01/19 06:26:50;;;;;;;25.58;12.93;;;;;;;-0.73;100.00;100317.75;5073296;28;20024;-90
2023/01/19 06:29:16;;;;;;;23.85;12.82;;;;;;;-0.73;100.00;100323.66;5073093;28;20036;-90
2023/01/19 06:31:41;;;;;;;22.92;13.73;;;;;;;-0.79;100.00;100322.97;5073405;28;20037;-91
2023/01/19 06:34:07;;;;;;;24.25;13.70;;;;;;;-0.72;100.00;100329.56;5077137;28;20048;-84
2023/01/19 06:36:32;;;;;;;24.90;13.93;;;;;;;-0.81;100.00;100310.31;5077529;28;20036;-90
2023/01/19 06:38:58;;;;;;;27.38;15.68;;;;;;;-1.05;100.00;100286.44;5058399;28;20032;-89
2023/01/19 06:41:23;;;;;;;29.30;17.73;;;;;;;-0.99;100.00;100296.41;5076225;28;20043;-88
2023/01/19 06:43:48;;;;;;;28.70;17.58;;;;;;;-0.70;100.00;100343.84;5077174;28;20031;-91
2023/01/19 06:46:14;;;;;;;32.20;19.58;;;;;;;-0.78;100.00;100334.78;5077900;28;20032;-87
2023/01/19 06:48:48;;;;;;;32.72;22.17;;;;;;;-0.72;100.00;100347.31;5075977;28;20108;-89
2023/01/19 06:51:14;;;;;;;36.10;23.65;;;;;;;-1.03;100.00;100304.13;5075937;28;20052;-88
2023/01/19 06:53:48;;;;;;;40.03;25.27;;;;;;;-0.70;100.00;100359.06;5075694;28;20033;-87
2023/01/19 06:56:17;;;;;;;39.75;26.17;;;;;;;-0.68;100.00;100369.19;5058836;28;20033;-92
2023/01/19 06:58:45;;;;;;;46.45;28.98;;;;;;;-0.81;100.00;100339.91;5075663;28;20036;-90
2023/01/19 07:01:10;;;;;;;45.00;31.13;;;;;;;-0.65;100.00;100369.09;5075750;28;20036;-92
2023/01/19 07:03:38;;;;;;;46.40;30.38;;;;;;;-0.77;100.00;100347.44;5076013;28;20054;-90
2023/01/19 07:06:07;;;;;;;51.17;31.75;;;;;;;-0.59;100.00;100368.94;5075408;28;20544;-89
2023/01/19 07:08:34;;;;;;;51.58;32.67;;;;;;;-0.88;100.00;100324.03;5057331;28;20032;-91
2023/01/19 07:11:08;;;;;;;50.20;33.20;;;;;;;-0.58;100.00;100378.25;5056727;28;20025;-83
2023/01/19 07:13:35;;;;;;;48.50;32.53;;;;;;;-0.98;100.00;100320.91;5075258;28;20043;-87
2023/01/19 07:16:05;;;;;;;58.17;34.30;;;;;;;-0.47;100.00;100385.59;5057247;28;20031;-88
2023/01/19 07:18:30;;;;;;;54.45;35.30;;;;;;;-0.43;100.00;100384.63;5074805;28;20028;-84
2023/01/19 07:20:57;;;;;;;55.60;34.15;;;;;;;-0.42;100.00;100386.28;5074764;28;20108;-90
2023/01/19 07:23:22;;;;;;;57.88;35.85;;;;;;;-0.80;100.00;100333.97;5074896;28;20349;-90
2023/01/19 07:25:47;;;;;;;57.90;36.78;;;;;;;-0.56;100.00;100379.03;5056794;28;20031;-89
2023/01/19 07:28:14;;;;;;;57.60;36.15;;;;;;;-0.59;100.00;100384.16;5056743;28;20045;-91
2023/01/19 07:30:41;;;;;;;61.13;36.95;;;;;;;-0.62;100.00;100384.25;5074624;28;20055;-88
2023/01/19 07:33:07;;;;;;;63.55;38.13;;;;;;;-1.04;100.00;100315.13;5074761;28;20024;-87
2023/01/19 07:35:32;;;;;;;61.58;37.33;;;;;;;-0.96;100.00;100339.44;5056624;28;20442;-89
2023/01/19 07:37:57;;;;;;;60.58;38.42;;;;;;;-0.52;100.00;100416.13;5056983;28;20375;-89
2023/01/19 07:40:23;;;;;;;64.90;39.35;;;;;;;-0.52;100.00;100418.66;5074264;28;20036;-87
2023/01/19 07:42:49;;;;;;;64.65;39.92;;;;;;;-0.71;100.00;100380.22;5074500;28;20098;-88
2023/01/19 07:45:19;;;;;;;66.95;40.97;;;;;;;-0.52;100.00;100413.56;5074250;28;20070;-87
2023/01/19 07:47:47;;;;;;;69.18;40.13;;;;;;;-0.50;100.00;100432.13;5074394;28;20028;-88
2023/01/19 07:50:14;;;;;;;67.93;39.58;;;;;;;-0.70;100.00;100398.78;5073321;28;20368;-89
2023/01/19 07:52:40;;;;;;;69.32;41.78;;;;;;;-0.54;100.00;100435.63;5073976;28;20055;-89
2023/01/19 07:55:07;;;;;;;70.93;40.08;;;;;;;-0.55;100.00;100444.09;5074246;28;20036;-86
2023/01/19 07:57:32;;;;;;;73.22;43.20;;;;;;;-0.56;100.00;100439.91;5058122;28;20379;-87
2023/01/19 08:00:02;;;;;;;69.75;41.88;;;;;;;-0.54;100.00;100442.38;5055973;28;20036;-87
2023/01/19 08:02:29;;;;;;;73.57;42.47;;;;;;;-0.87;100.00;100394.97;5084635;22;20024;-81
2023/01/19 08:04:54;;;;;;;69.90;41.30;;;;;;;-1.54;100.00;100292.63;5115513;28;20105;-86
2023/01/19 08:07:19;;;;;;;72.30;41.30;;;;;;;-0.66;100.00;100438.44;5114644;28;20046;-86
2023/01/19 08:09:45;;;;;;;66.45;40.25;;;;;;;-0.58;100.00;100456.84;5114855;28;20028;-86
2023/01/19 08:12:10;;;;;;;75.38;42.92;;;;;;;-0.85;100.00;100414.38;5114258;28;20505;-86
2023/01/19 08:14:35;;;;;;;71.35;40.28;;;;;;;-0.55;100.00;100461.84;5114805;28;20467;-84
2023/01/19 08:17:02;;;;;;;72.47;40.00;;;;;;;-0.54;100.00;100475.34;5114693;28;20047;-82
2023/01/19 08:19:27;;;;;;;70.85;41.67;;;;;;;-0.81;100.00;100434.53;5114157;28;20462;-83
2023/01/19 08:21:53;;;;;;;73.10;42.28;;;;;;;-0.52;100.00;100476.16;5114049;28;20026;-86
2023/01/19 08:24:21;;;;;;;77.53;42.53;;;;;;;-0.50;100.00;100484.56;5114251;28;20143;-78
2023/01/19 08:26:47;;;;;;;78.38;41.63;;;;;;;-0.60;100.00;100464.47;5113883;28;20115;-87
2023/01/19 08:29:13;;;;;;;72.78;42.97;;;;;;;-0.54;100.00;100481.25;5114238;28;20023;-86
2023/01/19 08:31:41;;;;;;;69.82;40.97;;;;;;;-0.27;100.00;100511.94;5114215;28;20035;-88
2023/01/19 08:34:07;;;;;;;75.82;42.83;;;;;;;-0.16;100.00;100513.34;5114076;28;20112;-88
2023/01/19 08:36:33;;;;;;;84.55;42.25;;;;;;;-0.06;100.00;100519.88;5114021;28;20027;-87
2023/01/19 08:38:58;;;;;;;74.05;41.53;;;;;;;0.03;100.00;100526.44;5113757;28;20027;-86
2023/01/19 08:41:23;;;;;;;75.78;40.72;;;;;;;0.09;100.00;100536.41;5113714;28;20043;-89
2023/01/19 08:43:49;;;;;;;72.90;40.13;;;;;;;-0.08;100.00;100500.47;5113923;28;20378;-85
2023/01/19 08:46:16;;;;;;;69.13;38.33;;;;;;;0.01;100.00;100518.03;5113765;28;20078;-88
2023/01/19 08:48:44;;;;;;;65.70;39.00;;;;;;;0.04;100.00;100528.09;5113694;28;20104;-86
2023/01/19 08:51:11;;;;;;;65.45;38.55;;;;;;;-0.25;100.00;100477.22;5113514;28;20448;-84
2023/01/19 08:53:36;;;;;;;64.40;39.28;;;;;;;-0.07;100.00;100504.69;5113562;28;20024;-82
2023/01/19 08:56:02;;;;;;;70.03;40.28;;;;;;;0.09;100.00;100530.50;5113351;28;20497;-89
2023/01/19 08:58:27;;;;;;;72.60;39.15;;;;;;;0.12;100.00;100538.91;5113781;28;20443;-88
2023/01/19 09:00:53;;;;;;;80.30;42.45;;;;;;;0.05;100.00;100539.09;5113594;28;20040;-87
2023/01/19 09:03:21;;;;;;;75.50;42.25;;;;;;;-0.23;100.00;100483.06;5113348;28;20043;-87
2023/01/19 09:05:47;;;;;;;73.57;41.35;;;;;;;-0.37;100.00;100456.34;5113371;28;20478;-86
2023/01/19 09:08:14;;;;;;;72.32;41.13;;;;;;;0.16;100.00;100545.56;5113281;28;20062;-87
2023/01/19 09:10:45;;;;;;;78.40;40.42;;;;;;;0.12;100.00;100525.38;5113550;28;20020;-85
2023/01/19 09:13:11;;;;;;;83.22;43.78;;;;;;;0.23;100.00;100553.88;5113409;28;20062;-86
2023/01/19 09:15:38;;;;;;;91.75;43.40;;;;;;;0.08;100.00;100513.59;5113491;28;20099;-82
2023/01/19 09:18:05;;;;;;;88.03;44.10;;;;;;;0.55;100.00;100556.41;5113256;28;20038;-86
2023/01/19 09:20:33;;;;;;;85.75;46.35;;;;;;;0.36;100.00;100499.34;5113012;28;20024;-85
2023/01/19 09:22:59;;;;;;;92.43;44.58;;;;;;;0.68;100.00;100554.38;5115326;28;20055;-85
2023/01/19 09:25:25;;;;;;;83.88;43.00;;;;;;;0.66;100.00;100561.22;5114444;28;20015;-85
2023/01/19 09:27:51;;;;;;;83.82;43.10;;;;;;;0.61;100.00;100552.88;5113187;28;20020;-85
2023/01/19 09:30:17;;;;;;;91.78;43.38;;;;;;;0.44;100.00;100530.47;5111215;28;20040;-83
2023/01/19 09:32:43;;;;;;;86.55;41.58;;;;;;;0.47;100.00;100530.38;5113127;28;20031;-81
2023/01/19 09:35:09;;;;;;;86.03;43.05;;;;;;;0.40;100.00;100518.72;5111065;28;20024;-82
2023/01/19 09:37:37;;;;;;;79.82;42.60;;;;;;;0.75;100.00;100563.50;5092885;28;20455;-85
2023/01/19 09:40:08;;;;;;;80.30;42.88;;;;;;;0.51;100.00;100531.97;5093504;28;20059;-83
2023/01/19 09:42:46;;;;;;;83.43;41.20;;;;;;;0.67;100.00;100572.19;5091224;28;20441;-81
2023/01/19 09:45:21;;;;;;;83.05;41.40;;;;;;;0.40;100.00;100538.22;5092373;28;20036;-80
2023/01/19 09:47:48;;;;;;;82.05;40.00;;;;;;;0.38;100.00;100538.22;5092599;28;20032;-80
2023/01/19 09:50:36;;;;;;;80.97;42.22;;;;;;;0.62;100.00;100579.97;5092657;28;20024;-79
2023/01/19 09:53:12;;;;;;;87.22;42.08;;;;;;;0.33;100.00;100534.97;5092496;28;20062;-80
2023/01/19 09:55:41;;;;;;;87.60;40.72;;;;;;;0.46;100.00;100563.44;5092855;28;20084;-81
2023/01/19 09:58:18;;;;;;;82.68;41.35;;;;;;;0.45;100.00;100580.38;5092576;28;20054;-77
2023/01/19 10:00:55;;;;;;;81.43;41.65;;;;;;;0.40;100.00;100589.84;5092343;28;20383;-80
2023/01/19 10:03:22;;;;;;;79.80;39.95;;;;;;;0.35;100.00;100591.66;5092531;28;20506;-79
2023/01/19 10:05:54;;;;;;;84.68;40.25;;;;;;;0.26;100.00;100576.63;5092225;28;20421;-80
2023/01/19 10:08:42;;;;;;;;;;;;;;;0.38;100.00;100598.34;5095457;28;20019;-78
2023/01/19 10:11:42;;;;;;;81.22;38.85;;;;;;;0.44;100.00;100590.59;5096282;28;19912;-81
2023/01/19 10:14:21;;;;;;;75.93;38.80;;;;;;;0.16;100.00;100545.56;5092637;28;20475;-80
2023/01/19 10:17:06;;;;;;;75.10;36.58;;;;;;;0.46;100.00;100591.38;5096305;28;20066;-83
2023/01/19 10:19:37;;;;;;;66.32;34.00;;;;;;;0.43;100.00;100594.84;5095983;28;20482;-81
2023/01/19 10:22:17;;;;;;;68.23;34.10;;;;;;;0.05;100.00;100532.28;5096203;28;20081;-82
2023/01/19 10:24:43;;;;;;;65.90;34.95;;;;;;;0.24;100.00;100566.53;5096165;28;20058;-82
2023/01/19 10:27:22;;;;;;;65.13;33.72;;;;;;;0.31;100.00;100564.66;5096114;28;20025;-84
2023/01/19 10:29:48;;;;;;;61.75;32.88;;;;;;;0.47;100.00;100586.25;5096002;28;20086;-86
2023/01/19 10:32:25;;;;;;;56.72;32.47;;;;;;;0.47;100.00;100591.34;5095898;28;20494;-87
2023/01/19 10:34:52;;;;;;;52.55;31.52;;;;;;;0.52;100.00;100598.84;5096197;28;20027;-84
2023/01/19 10:37:44;;;;;;;54.00;31.80;;;;;;;0.33;100.00;100583.25;5095978;28;20055;-85
2023/01/19 10:40:09;;;;;;;51.45;30.08;;;;;;;0.50;100.00;100600.59;5092741;28;20127;-86
2023/01/19 10:42:35;;;;;;;52.03;29.83;;;;;;;0.53;100.00;100608.16;5095704;28;20082;-88
2023/01/19 10:45:01;;;;;;;57.45;31.58;;;;;;;0.40;100.00;100584.75;5095946;28;20395;-86
2023/01/19 10:47:34;;;;;;;54.20;30.92;;;;;;;0.53;100.00;100608.16;5095793;28;20027;-87
2023/01/19 10:50:20;;;;;;;55.35;31.23;;;;;;;0.24;100.00;100550.44;5095617;28;20066;-72
2023/01/19 10:52:50;;;;;;;55.75;30.50;;;;;;;0.54;100.00;100605.56;5095598;28;20061;-82
2023/01/19 10:55:38;;;;;;;53.67;30.13;;;;;;;0.42;100.00;100577.09;5094438;28;20020;-83
2023/01/19 10:58:05;;;;;;;51.80;28.75;;;;;;;0.49;100.00;100596.38;5096118;28;20024;-83
2023/01/19 11:00:44;;;;;;;48.95;28.77;;;;;;;0.51;100.00;100595.47;5095832;28;20395;-83
2023/01/19 11:03:28;;;;;;;51.00;29.77;;;;;;;0.59;100.00;100595.28;5095977;28;20436;-85
2023/01/19 11:06:21;;;;;;;52.63;30.63;;;;;;;0.61;100.00;100597.78;5095416;28;20020;-83
2023/01/19 11:08:51;;;;;;;48.38;28.42;;;;;;;0.64;100.00;100600.25;5033000;28;20034;-84
2023/01/19 11:11:22;;;;;;;49.05;28.73;;;;;;;0.47;100.00;100560.03;5082372;22;20043;-84
2023/01/19 11:14:08;;;;;;;47.75;27.63;;;;;;;0.68;100.00;100601.81;5114090;28;20028;-86
2023/01/19 11:16:34;;;;;;;48.10;26.63;;;;;;;0.70;100.00;100603.47;5115589;28;20098;-86
2023/01/19 11:19:01;;;;;;;47.25;27.83;;;;;;;0.53;100.00;100567.50;5115282;28;20104;-92
2023/01/19 11:21:29;;;;;;;48.10;27.55;;;;;;;0.75;100.00;100606.72;5115860;28;20112;-82
2023/01/19 11:24:04;;;;;;;45.95;27.08;;;;;;;0.53;100.00;100572.56;5113309;28;20040;-86
2023/01/19 11:26:46;;;;;;;44.75;26.98;;;;;;;0.78;100.00;100614.25;5116268;28;20032;-85
2023/01/19 11:29:32;;;;;;;48.85;26.48;;;;;;;0.61;100.00;100573.22;5113797;28;20044;-87
2023/01/19 11:32:10;;;;;;;45.42;25.17;;;;;;;0.85;100.00;100610.69;5115122;27;20407;-86
2023/01/19 11:34:37;;;;;;;46.25;25.52;;;;;;;0.88;100.00;100603.84;5114610;28;20020;-80
2023/01/19 11:37:14;;;;;;;48.03;26.13;;;;;;;0.87;100.00;100595.38;5121697;22;20592;-83
2023/01/19 11:39:51;;;;;;;49.03;26.10;;;;;;;0.91;100.00;100602.06;5115090;28;20057;-84
2023/01/19 11:42:18;;;;;;;46.20;26.20;;;;;;;0.93;100.00;100600.31;5115188;28;20081;-84
2023/01/19 11:45:04;;;;;;;39.10;24.92;;;;;;;0.96;100.00;100609.56;5115129;28;20023;-81
2023/01/19 11:47:53;;;;;;;45.33;26.00;;;;;;;0.99;100.00;100605.25;5115014;28;20035;-85
2023/01/19 11:50:37;;;;;;;41.70;25.02;;;;;;;1.02;100.00;100610.25;5097412;28;20069;-80
2023/01/19 11:53:33;;;;;;;46.60;26.23;;;;;;;0.89;100.00;100588.56;5115515;28;20666;-87
2023/01/19 11:56:11;;;;;;;40.55;24.63;;;;;;;1.04;100.00;100616.09;5112752;28;20046;-86
2023/01/19 11:58:42;;;;;;;38.03;24.60;;;;;;;0.76;100.00;100555.00;5114869;28;20396;-86
2023/01/19 12:01:16;;;;;;;44.40;25.00;;;;;;;1.12;100.00;100603.19;5096425;28;20402;-87
2023/01/19 12:04:11;;;;;;;44.00;24.77;;;;;;;1.00;100.00;100588.28;5096565;28;20295;-87